Time;durP1;ratioP1;P1;durP2;ratioP2;P2;SDS_P1;SDS_P2;PMS_P1;PMS_P2;Temp;Humidity;BMP_temperature;BMP_pressure;BME280_temperature;BME280_humidity;BME280_pressure;Samples;Min_cycle;Max_cycle;Signal;HPM_P1;HPM_P2
2023/02/26 00:00:36;;;;;;;3.90;0.73;;;-1.40;99.90;;;;;;5045748;28;20445;-76
2023/02/26 00:03:02;;;;;;;1.42;0.80;;;-1.40;99.90;;;;;;5062959;28;20021;-76
2023/02/26 00:05:28;;;;;;;3.08;0.80;;;-1.40;99.90;;;;;;5061237;28;20132;-76
2023/02/26 00:07:54;;;;;;;5.03;0.90;;;-1.40;99.90;;;;;;5063423;28;20120;-75
2023/02/26 00:10:20;;;;;;;1.85;0.80;;;-1.40;99.90;;;;;;5066918;28;20040;-76
2023/02/26 00:12:46;;;;;;;1.33;0.55;;;-1.40;99.90;;;;;;5062421;28;20029;-74
2023/02/26 00:15:13;;;;;;;2.97;0.90;;;-1.40;99.90;;;;;;5051124;28;20377;-75
2023/02/26 00:17:58;;;;;;;2.08;0.88;;;-1.50;99.90;;;;;;5065323;28;20047;-76
2023/02/26 00:20:25;;;;;;;1.40;0.67;;;-1.50;99.90;;;;;;5082629;28;20468;-75
2023/02/26 00:22:51;;;;;;;3.13;0.80;;;-1.50;99.90;;;;;;5061823;28;20028;-76
2023/02/26 00:25:17;;;;;;;3.22;1.02;;;-1.60;99.90;;;;;;5050323;28;20093;-76
2023/02/26 00:27:43;;;;;;;1.52;0.63;;;-1.60;99.90;;;;;;5068922;28;20024;-76
2023/02/26 00:30:10;;;;;;;2.05;0.60;;;-1.60;99.90;;;;;;5068452;28;20035;-76
2023/02/26 00:32:38;;;;;;;8.18;0.70;;;-1.70;99.90;;;;;;5042668;28;20066;-75
2023/02/26 00:35:11;;;;;;;1.52;0.63;;;-1.70;99.90;;;;;;5064188;28;20028;-76
2023/02/26 00:38:06;;;;;;;2.45;0.70;;;-1.70;99.90;;;;;;5064291;28;20033;-76
2023/02/26 00:40:44;;;;;;;3.20;0.77;;;-1.70;99.90;;;;;;5069106;28;20047;-76
2023/02/26 00:43:23;;;;;;;3.50;0.80;;;-1.60;99.90;;;;;;5067178;28;20028;-76
2023/02/26 00:46:09;;;;;;;1.75;0.60;;;-1.60;99.90;;;;;;5068072;28;20086;-75
2023/02/26 00:48:57;;;;;;;4.10;0.75;;;-1.60;99.90;;;;;;5066605;28;20420;-75
2023/02/26 00:51:23;;;;;;;2.45;0.88;;;-1.60;99.90;;;;;;5069374;28;20046;-76
2023/02/26 00:54:02;;;;;;;3.28;0.50;;;-1.50;99.90;;;;;;5068043;28;20032;-75
2023/02/26 00:56:28;;;;;;;2.38;0.68;;;-1.50;99.90;;;;;;5064323;28;20047;-76
2023/02/26 00:58:54;;;;;;;2.90;0.63;;;-1.60;99.90;;;;;;5048280;28;20528;-76
2023/02/26 01:01:19;;;;;;;2.72;0.77;;;-1.60;99.90;;;;;;5068224;28;20492;-76
2023/02/26 01:03:46;;;;;;;2.97;0.60;;;-1.70;99.90;;;;;;5065323;28;20120;-76
2023/02/26 01:06:19;;;;;;;2.42;0.85;;;-1.70;99.90;;;;;;5066096;28;20063;-75
2023/02/26 01:08:57;;;;;;;2.42;0.65;;;-1.80;99.90;;;;;;5066926;28;20111;-75
2023/02/26 01:11:23;;;;;;;1.90;0.70;;;-1.80;99.90;;;;;;5084990;28;20025;-76
2023/02/26 01:13:49;;;;;;;1.60;0.50;;;-1.90;99.90;;;;;;5048844;28;20035;-75
2023/02/26 01:16:25;;;;;;;2.40;0.60;;;-1.90;99.90;;;;;;5018983;28;20024;-75
2023/02/26 01:18:59;;;;;;;1.73;0.70;;;-2.00;99.90;;;;;;5068320;28;20025;-76
2023/02/26 01:21:33;;;;;;;3.20;0.80;;;-2.00;99.90;;;;;;5069661;28;20021;-76
2023/02/26 01:24:04;;;;;;;1.77;0.50;;;-2.00;99.90;;;;;;5065561;28;20036;-76
2023/02/26 01:26:30;;;;;;;5.13;0.70;;;-2.10;99.90;;;;;;5066105;28;20033;-76
2023/02/26 01:28:57;;;;;;;2.55;0.63;;;-2.10;99.90;;;;;;5068386;28;20027;-76
2023/02/26 01:31:22;;;;;;;2.50;0.80;;;-2.10;99.90;;;;;;5051519;28;20036;-76
2023/02/26 01:34:02;;;;;;;2.97;0.80;;;-2.20;99.90;;;;;;5068782;28;20104;-76
2023/02/26 01:36:35;;;;;;;2.72;0.90;;;-2.20;99.90;;;;;;5065805;28;20016;-76
2023/02/26 01:39:18;;;;;;;1.42;0.50;;;-2.30;99.90;;;;;;5067162;28;20485;-76
2023/02/26 01:41:51;;;;;;;3.55;0.93;;;-2.30;99.90;;;;;;5063475;28;20036;-75
2023/02/26 01:44:36;;;;;;;2.45;0.70;;;-2.30;99.90;;;;;;5057850;28;20052;-76
2023/02/26 01:47:32;;;;;;;3.42;0.77;;;-2.40;99.90;;;;;;5081191;28;20497;-76
2023/02/26 01:50:04;;;;;;;3.13;0.70;;;-2.40;99.90;;;;;;5067168;28;20083;-76
2023/02/26 01:52:48;;;;;;;2.65;0.90;;;-2.50;99.90;;;;;;5070998;28;20039;-76
2023/02/26 01:55:26;;;;;;;4.57;0.85;;;-2.50;99.90;;;;;;5069951;28;20631;-76
2023/02/26 01:57:54;;;;;;;1.33;0.70;;;-2.50;99.90;;;;;;5066760;28;20036;-76
2023/02/26 02:00:20;;;;;;;0.85;0.68;;;-2.50;99.90;;;;;;5051909;28;20028;-76
2023/02/26 02:02:48;;;;;;;1.67;0.65;;;-2.50;99.90;;;;;;5068750;28;20028;-77
2023/02/26 02:05:23;;;;;;;2.60;0.63;;;-2.60;99.90;;;;;;5069154;28;20028;-76
2023/02/26 02:07:49;;;;;;;2.47;0.70;;;-2.60;99.90;;;;;;5070616;28;20054;-76
2023/02/26 02:10:15;;;;;;;2.47;0.85;;;-2.60;99.90;;;;;;5050670;28;20045;-76
2023/02/26 02:12:55;;;;;;;3.13;0.90;;;-2.60;99.90;;;;;;5028949;28;20028;-77
2023/02/26 02:15:38;;;;;;;3.35;0.82;;;-2.60;99.90;;;;;;5051946;28;20037;-76
2023/02/26 02:18:26;;;;;;;1.40;0.60;;;-2.60;99.90;;;;;;5064701;28;20488;-76
2023/02/26 02:21:26;;;;;;;3.20;1.02;;;-2.70;99.90;;;;;;5069358;28;20032;-76
2023/02/26 02:23:52;;;;;;;1.17;0.77;;;-2.60;99.90;;;;;;5051585;28;20035;-75
2023/02/26 02:26:24;;;;;;;4.28;1.15;;;-2.60;99.90;;;;;;5071037;28;20025;-75
2023/02/26 02:29:22;;;;;;;3.63;0.77;;;-2.50;99.90;;;;;;5068141;28;20032;-76
2023/02/26 02:32:16;;;;;;;3.03;0.68;;;-2.40;99.90;;;;;;5062569;28;20678;-76
2023/02/26 02:35:08;;;;;;;1.40;0.82;;;-2.40;99.90;;;;;;5069849;28;20029;-76
2023/02/26 02:37:39;;;;;;;2.65;0.88;;;-2.40;99.90;;;;;;5057336;28;20043;-75
2023/02/26 02:40:29;;;;;;;2.13;1.00;;;-2.50;99.90;;;;;;5054738;28;20025;-76
2023/02/26 02:43:00;;;;;;;2.13;0.65;;;-2.50;99.90;;;;;;5067340;28;20477;-76
2023/02/26 02:45:30;;;;;;;2.17;0.70;;;-2.60;99.90;;;;;;5070567;28;20039;-77
2023/02/26 02:48:00;;;;;;;0.52;0.35;;;-2.70;99.90;;;;;;5066062;28;20021;-75
2023/02/26 02:50:38;;;;;;;1.95;0.85;;;-2.70;99.90;;;;;;5070805;28;20037;-76
2023/02/26 02:53:11;;;;;;;1.88;0.80;;;-2.70;99.90;;;;;;5070835;28;20031;-74
2023/02/26 02:55:47;;;;;;;2.55;0.70;;;-2.80;99.90;;;;;;5070036;28;20063;-76
2023/02/26 02:58:18;;;;;;;3.28;0.73;;;-2.80;99.90;;;;;;5068975;28;20028;-76
2023/02/26 03:00:55;;;;;;;1.95;0.68;;;-2.80;99.90;;;;;;5071178;28;20102;-75
2023/02/26 03:03:34;;;;;;;3.03;0.70;;;-2.80;99.90;;;;;;5021128;28;20048;-76
2023/02/26 03:06:00;;;;;;;2.67;1.65;;;-2.90;99.90;;;;;;5066938;28;20066;-75
2023/02/26 03:08:30;;;;;;;3.42;0.70;;;-2.90;99.90;;;;;;5071727;28;20107;-76
2023/02/26 03:10:56;;;;;;;2.13;0.90;;;-2.90;99.90;;;;;;5054284;28;20036;-76
2023/02/26 03:13:24;;;;;;;2.53;0.65;;;-2.90;99.90;;;;;;5036638;28;20503;-74
2023/02/26 03:16:25;;;;;;;2.70;0.70;;;-2.80;99.90;;;;;;5085622;28;20067;-76
2023/02/26 03:19:18;;;;;;;3.20;0.60;;;-2.80;99.90;;;;;;5049710;28;20524;-76
2023/02/26 03:21:44;;;;;;;1.15;0.70;;;-2.70;99.90;;;;;;5069686;28;20118;-76
2023/02/26 03:24:20;;;;;;;1.30;0.55;;;-2.70;99.90;;;;;;5052526;28;20024;-76
2023/02/26 03:27:11;;;;;;;2.40;0.50;;;-2.60;99.90;;;;;;5070272;28;20082;-76
2023/02/26 03:29:52;;;;;;;1.75;0.82;;;-2.50;99.90;;;;;;5060118;28;20497;-76
2023/02/26 03:32:39;;;;;;;1.50;0.63;;;-2.50;99.90;;;;;;5069446;28;20025;-76
2023/02/26 03:35:13;;;;;;;0.63;0.50;;;-2.50;99.90;;;;;;5068392;28;20025;-76
2023/02/26 03:37:50;;;;;;;1.33;0.68;;;-2.40;99.90;;;;;;5068585;28;20035;-76
2023/02/26 03:40:26;;;;;;;1.17;0.55;;;-2.40;99.90;;;;;;5065979;28;20028;-76
2023/02/26 03:42:59;;;;;;;0.88;0.70;;;-2.30;99.90;;;;;;5065982;28;20028;-75
2023/02/26 03:45:31;;;;;;;1.45;0.90;;;-2.30;99.90;;;;;;5066269;28;20139;-75
2023/02/26 03:48:00;;;;;;;2.72;0.93;;;-2.30;99.90;;;;;;5067142;28;20056;-74
2023/02/26 03:50:35;;;;;;;1.60;0.60;;;-2.30;99.90;;;;;;5069486;28;20039;-75
2023/02/26 03:53:27;;;;;;;2.13;0.80;;;-2.30;99.90;;;;;;5047007;28;20025;-75
2023/02/26 03:56:10;;;;;;;2.17;0.40;;;-2.20;99.90;;;;;;5068181;28;20025;-76
2023/02/26 03:59:08;;;;;;;4.55;0.57;;;-2.20;99.90;;;;;;5067536;28;20030;-76
2023/02/26 04:02:01;;;;;;;2.97;0.63;;;-2.20;99.90;;;;;;5061078;28;20496;-76
2023/02/26 04:04:41;;;;;;;0.73;0.40;;;-2.10;99.90;;;;;;5065499;28;20066;-77
2023/02/26 04:07:09;;;;;;;1.15;0.40;;;-2.10;99.90;;;;;;5068208;28;20119;-76
2023/02/26 04:09:35;;;;;;;1.55;0.70;;;-2.10;99.90;;;;;;5066316;28;20095;-76
2023/02/26 04:12:01;;;;;;;1.50;0.60;;;-2.10;99.90;;;;;;5063847;28;20060;-74
2023/02/26 04:14:27;;;;;;;3.10;0.77;;;-2.10;99.90;;;;;;5049528;28;20047;-76
2023/02/26 04:16:53;;;;;;;0.75;0.60;;;-2.10;99.90;;;;;;5062072;28;20114;-76
2023/02/26 04:19:18;;;;;;;0.60;0.60;;;-2.10;99.90;;;;;;5050295;28;20021;-75
2023/02/26 04:21:45;;;;;;;1.33;0.57;;;-2.10;99.90;;;;;;5069339;28;20032;-76
2023/02/26 04:24:13;;;;;;;3.03;0.80;;;-2.00;99.90;;;;;;5068996;28;20123;-76
2023/02/26 04:26:39;;;;;;;1.98;0.68;;;-2.00;99.90;;;;;;5070243;28;20139;-76
2023/02/26 04:29:06;;;;;;;1.83;0.52;;;-2.10;99.90;;;;;;5052507;28;20078;-76
2023/02/26 04:31:31;;;;;;;0.98;0.75;;;-2.00;99.90;;;;;;5034415;28;20439;-76
2023/02/26 04:33:58;;;;;;;1.67;0.73;;;-2.00;99.90;;;;;;5051841;28;20067;-76
2023/02/26 04:36:24;;;;;;;1.40;0.55;;;-2.00;99.90;;;;;;5067289;28;20056;-74
2023/02/26 04:38:50;;;;;;;0.70;0.70;;;-2.00;99.90;;;;;;5052139;28;20025;-76
2023/02/26 04:41:16;;;;;;;1.42;0.65;;;-2.00;99.90;;;;;;5069077;28;20029;-76
2023/02/26 04:43:43;;;;;;;2.35;0.82;;;-1.90;99.90;;;;;;5051546;28;20094;-75
2023/02/26 04:46:31;;;;;;;0.93;0.60;;;-1.90;99.90;;;;;;5067592;28;20036;-76
2023/02/26 04:48:57;;;;;;;3.97;0.80;;;-1.90;99.90;;;;;;5069734;28;20033;-75
2023/02/26 04:51:24;;;;;;;1.65;0.55;;;-1.90;99.90;;;;;;5051322;28;20020;-75
2023/02/26 04:53:51;;;;;;;1.65;0.80;;;-1.80;99.90;;;;;;5063708;28;20049;-76
2023/02/26 04:56:18;;;;;;;1.55;0.70;;;-1.80;99.90;;;;;;5051247;28;20036;-76
2023/02/26 04:58:44;;;;;;;3.70;0.88;;;-1.80;99.90;;;;;;5068389;28;20035;-76
2023/02/26 05:01:15;;;;;;;1.15;0.65;;;-1.80;99.90;;;;;;5061781;28;20148;-75
2023/02/26 05:03:41;;;;;;;1.85;0.70;;;-1.80;99.90;;;;;;5054499;28;20592;-76
2023/02/26 05:06:07;;;;;;;1.92;0.80;;;-1.80;99.90;;;;;;5048057;28;20095;-75
2023/02/26 05:08:33;;;;;;;2.38;0.77;;;-1.80;99.90;;;;;;5068580;28;20032;-76
2023/02/26 05:10:59;;;;;;;0.63;0.50;;;-1.80;99.90;;;;;;5068239;28;20086;-76
2023/02/26 05:13:25;;;;;;;1.40;0.70;;;-1.70;99.90;;;;;;5051433;28;20469;-76
2023/02/26 05:15:53;;;;;;;2.63;0.90;;;-1.70;99.90;;;;;;5068170;28;20029;-76
2023/02/26 05:18:19;;;;;;;0.90;0.73;;;-1.70;99.90;;;;;;5066085;28;20017;-76
2023/02/26 05:20:51;;;;;;;1.63;0.65;;;-1.70;99.90;;;;;;5051729;28;20029;-76
2023/02/26 05:23:17;;;;;;;1.83;0.68;;;-1.70;99.90;;;;;;5065462;28;20059;-76
2023/02/26 05:25:43;;;;;;;3.60;0.80;;;-1.70;99.90;;;;;;5049468;28;20032;-76
2023/02/26 05:28:09;;;;;;;2.30;0.60;;;-1.70;99.90;;;;;;5049611;28;20119;-76
2023/02/26 05:30:34;;;;;;;1.30;0.80;;;-1.60;99.90;;;;;;5068079;28;20168;-76
2023/02/26 05:33:00;;;;;;;2.25;0.70;;;-1.60;99.90;;;;;;5050647;28;20670;-76
2023/02/26 05:35:26;;;;;;;1.65;0.82;;;-1.60;99.90;;;;;;5064504;28;20405;-76
2023/02/26 05:37:52;;;;;;;1.77;0.65;;;-1.60;99.90;;;;;;5065061;28;20394;-76
2023/02/26 05:40:18;;;;;;;1.27;0.77;;;-1.60;99.90;;;;;;5061881;28;20034;-76
2023/02/26 05:42:44;;;;;;;2.30;0.80;;;-1.60;99.90;;;;;;5065410;28;20033;-76
2023/02/26 05:45:09;;;;;;;1.27;0.70;;;-1.60;99.90;;;;;;5061334;28;20044;-76
2023/02/26 05:47:36;;;;;;;1.63;1.08;;;-1.60;99.90;;;;;;5062247;28;20043;-76
2023/02/26 05:50:03;;;;;;;2.47;1.10;;;-1.60;99.90;;;;;;5061634;28;20033;-76
2023/02/26 05:52:29;;;;;;;4.57;1.80;;;-1.60;99.90;;;;;;5063636;28;20107;-76
2023/02/26 05:54:55;;;;;;;1.65;1.10;;;-1.60;99.90;;;;;;5060284;28;20116;-76
2023/02/26 05:57:21;;;;;;;2.70;0.95;;;-1.50;99.90;;;;;;5060890;28;20392;-75
2023/02/26 05:59:47;;;;;;;1.63;1.08;;;-1.50;99.90;;;;;;5066844;28;20035;-76
2023/02/26 06:02:13;;;;;;;4.18;1.10;;;-1.50;99.90;;;;;;5068346;28;20029;-76
2023/02/26 06:04:39;;;;;;;2.97;1.02;;;-1.50;99.90;;;;;;5067166;28;20056;-76
2023/02/26 06:07:04;;;;;;;1.08;0.98;;;-1.50;99.90;;;;;;5051351;28;20392;-76
2023/02/26 06:09:30;;;;;;;2.17;0.90;;;-1.50;99.90;;;;;;5067177;28;20033;-76
2023/02/26 06:11:56;;;;;;;1.88;1.17;;;-1.50;99.90;;;;;;5067757;28;20064;-75
2023/02/26 06:14:22;;;;;;;2.53;1.10;;;-1.50;99.90;;;;;;5068580;28;20025;-76
2023/02/26 06:16:48;;;;;;;1.58;1.20;;;-1.50;99.90;;;;;;5067846;28;20036;-76
2023/02/26 06:19:13;;;;;;;1.73;1.25;;;-1.50;99.90;;;;;;5068831;28;20025;-76
2023/02/26 06:21:39;;;;;;;1.52;1.05;;;-1.50;99.90;;;;;;5051303;28;20044;-76
2023/02/26 06:24:05;;;;;;;1.50;1.13;;;-1.50;99.90;;;;;;5050313;28;20021;-75
2023/02/26 06:26:32;;;;;;;4.32;1.10;;;-1.40;99.90;;;;;;5078121;28;20097;-76
2023/02/26 06:28:57;;;;;;;1.88;1.33;;;-1.40;99.90;;;;;;5067751;28;20036;-76
2023/02/26 06:31:23;;;;;;;2.05;1.15;;;-1.40;99.90;;;;;;5067084;28;20043;-76
2023/02/26 06:33:49;;;;;;;1.27;1.17;;;-1.30;99.90;;;;;;5069699;28;20165;-76
2023/02/26 06:36:16;;;;;;;1.58;1.20;;;-1.30;99.90;;;;;;5069259;28;20033;-76
2023/02/26 06:38:44;;;;;;;1.77;1.33;;;-1.30;99.90;;;;;;5054640;28;20052;-75
2023/02/26 06:41:10;;;;;;;1.35;1.25;;;-1.30;99.90;;;;;;5071482;28;20119;-76
2023/02/26 06:43:36;;;;;;;1.48;1.30;;;-1.30;99.90;;;;;;5071101;28;20031;-75
2023/02/26 06:46:02;;;;;;;2.53;1.60;;;-1.20;99.90;;;;;;5071116;28;20075;-76
2023/02/26 06:48:28;;;;;;;2.05;1.30;;;-1.20;99.90;;;;;;5065337;28;20492;-76
2023/02/26 06:50:54;;;;;;;2.83;1.55;;;-1.20;99.90;;;;;;5067888;28;20138;-76
2023/02/26 06:53:20;;;;;;;1.60;1.20;;;-1.20;99.90;;;;;;5066610;28;20025;-75
2023/02/26 06:55:48;;;;;;;1.50;1.40;;;-1.10;99.90;;;;;;5070564;28;20115;-75
2023/02/26 06:58:14;;;;;;;1.55;1.33;;;-1.10;99.90;;;;;;5070275;28;20021;-75
2023/02/26 07:00:40;;;;;;;2.20;1.65;;;-1.10;99.90;;;;;;5071127;28;20558;-75
2023/02/26 07:03:10;;;;;;;1.55;1.45;;;-1.10;99.90;;;;;;5065641;28;20082;-75
2023/02/26 07:05:36;;;;;;;2.00;1.55;;;-1.10;99.90;;;;;;5067102;28;20047;-75
2023/02/26 07:08:04;;;;;;;1.70;1.40;;;-1.10;99.90;;;;;;5063745;28;20028;-76
2023/02/26 07:10:35;;;;;;;1.65;1.30;;;-1.10;99.90;;;;;;5070693;28;20031;-76
2023/02/26 07:13:01;;;;;;;1.63;1.35;;;-1.10;99.90;;;;;;5064293;28;20029;-76
2023/02/26 07:15:28;;;;;;;1.58;1.33;;;-1.10;99.90;;;;;;5063578;28;20036;-76
2023/02/26 07:17:53;;;;;;;1.40;1.10;;;-1.10;99.90;;;;;;5053940;28;20464;-76
2023/02/26 07:20:19;;;;;;;2.00;1.30;;;-1.10;99.90;;;;;;5070387;28;20060;-76
2023/02/26 07:22:45;;;;;;;1.55;1.30;;;-1.10;99.90;;;;;;5070722;28;20056;-76
2023/02/26 07:25:11;;;;;;;1.35;1.10;;;-1.10;99.90;;;;;;5069370;28;20089;-75
2023/02/26 07:27:37;;;;;;;1.40;0.95;;;-1.10;99.90;;;;;;5066372;28;20044;-76
2023/02/26 07:30:05;;;;;;;1.45;1.10;;;-1.00;99.90;;;;;;5065453;28;20033;-75
2023/02/26 07:32:31;;;;;;;1.27;0.98;;;-0.90;99.90;;;;;;5061746;28;20025;-75
2023/02/26 07:34:57;;;;;;;1.45;1.35;;;-0.80;99.90;;;;;;5069922;28;20027;-76
2023/02/26 07:37:24;;;;;;;49.63;17.80;;;-0.80;99.90;;;;;;5065099;28;20029;-75
2023/02/26 07:39:50;;;;;;;2.58;1.77;;;-0.70;99.90;;;;;;5063358;28;20033;-75
2023/02/26 07:42:17;;;;;;;1.50;0.90;;;-0.70;99.90;;;;;;5065618;28;20068;-75
2023/02/26 07:44:43;;;;;;;1.35;0.90;;;-0.70;99.90;;;;;;5066301;28;20036;-75
2023/02/26 07:47:09;;;;;;;2.30;1.10;;;-0.70;99.90;;;;;;5064741;28;20025;-76
2023/02/26 07:49:35;;;;;;;0.93;0.80;;;-0.70;99.90;;;;;;5063472;28;20465;-75
2023/02/26 07:52:01;;;;;;;1.42;0.80;;;-0.70;99.90;;;;;;5065936;28;20055;-76
2023/02/26 07:54:28;;;;;;;0.70;0.70;;;-0.70;99.90;;;;;;5070909;28;20039;-76
2023/02/26 07:56:53;;;;;;;1.27;1.08;;;-0.70;99.90;;;;;;5051877;28;20420;-76
2023/02/26 07:59:19;;;;;;;2.08;0.70;;;-0.70;99.90;;;;;;5070953;28;20424;-76
2023/02/26 08:01:45;;;;;;;1.60;0.82;;;-0.70;99.90;;;;;;5061949;28;20052;-75
2023/02/26 08:04:11;;;;;;;1.00;0.80;;;-0.70;99.90;;;;;;5067698;28;20519;-76
2023/02/26 08:06:37;;;;;;;1.02;0.93;;;-0.70;99.90;;;;;;5062877;28;20497;-75
2023/02/26 08:09:04;;;;;;;1.48;0.88;;;-0.70;99.90;;;;;;5051457;28;20032;-76
2023/02/26 08:11:31;;;;;;;1.17;0.90;;;-0.70;99.90;;;;;;5064218;28;20028;-76
2023/02/26 08:13:58;;;;;;;1.23;0.90;;;-0.70;99.90;;;;;;5064782;28;20497;-76
2023/02/26 08:16:23;;;;;;;0.80;0.80;;;-0.70;99.90;;;;;;5063651;28;20025;-76
2023/02/26 08:18:49;;;;;;;1.83;0.70;;;-0.70;99.90;;;;;;5058670;28;20024;-77
2023/02/26 08:21:15;;;;;;;0.98;0.82;;;-0.70;99.90;;;;;;5057603;28;20448;-76
2023/02/26 08:23:41;;;;;;;0.73;0.70;;;-0.70;99.90;;;;;;5059188;28;20225;-76
2023/02/26 08:26:09;;;;;;;1.70;0.98;;;-0.70;99.90;;;;;;5059177;28;20481;-76
2023/02/26 08:28:35;;;;;;;1.90;0.82;;;-0.60;99.90;;;;;;5059170;28;20558;-75
2023/02/26 08:31:02;;;;;;;0.98;0.85;;;-0.60;99.90;;;;;;5042696;28;20044;-77
2023/02/26 08:33:28;;;;;;;0.80;0.77;;;-0.50;99.90;;;;;;5056944;28;20034;-76
2023/02/26 08:35:56;;;;;;;0.90;0.77;;;-0.60;99.90;;;;;;5065912;28;20063;-75
2023/02/26 08:38:22;;;;;;;1.17;0.88;;;-0.60;99.90;;;;;;5060860;28;20029;-76
2023/02/26 08:40:48;;;;;;;0.70;0.70;;;-0.60;99.90;;;;;;5060096;28;20448;-75
2023/02/26 08:43:14;;;;;;;1.17;0.80;;;-0.50;99.90;;;;;;5061856;28;20035;-75
2023/02/26 08:45:40;;;;;;;1.20;0.70;;;-0.50;99.90;;;;;;5062503;28;20036;-76
2023/02/26 08:48:06;;;;;;;1.00;1.00;;;-0.40;99.90;;;;;;5058905;28;20037;-76
2023/02/26 08:50:31;;;;;;;1.27;0.80;;;-0.40;99.90;;;;;;5067102;28;20040;-76
2023/02/26 08:52:57;;;;;;;1.35;1.10;;;-0.30;99.90;;;;;;5063194;28;20025;-76
2023/02/26 08:55:24;;;;;;;2.13;0.70;;;-0.30;99.90;;;;;;5043719;28;20032;-75
2023/02/26 08:57:50;;;;;;;1.17;0.88;;;-0.30;99.90;;;;;;5060002;28;20032;-75
2023/02/26 09:00:17;;;;;;;0.70;0.70;;;-0.20;99.90;;;;;;5068945;28;20485;-75
2023/02/26 09:02:43;;;;;;;0.40;0.40;;;-0.20;99.90;;;;;;5068876;28;20400;-76
2023/02/26 09:05:10;;;;;;;0.95;0.80;;;-0.20;99.90;;;;;;5069187;28;20443;-76
2023/02/26 09:07:37;;;;;;;1.65;1.10;;;-0.20;99.90;;;;;;5067380;28;20174;-75
2023/02/26 09:10:04;;;;;;;1.17;1.00;;;-0.20;99.90;;;;;;5067407;28;20405;-75
2023/02/26 09:12:30;;;;;;;0.88;0.85;;;-0.20;99.90;;;;;;5069189;28;20039;-75
2023/02/26 09:14:57;;;;;;;1.10;0.98;;;-0.20;99.90;;;;;;5069051;28;20036;-75
2023/02/26 09:17:25;;;;;;;2.50;1.40;;;-0.20;99.90;;;;;;5050635;28;20032;-76
2023/02/26 09:19:50;;;;;;;1.88;1.15;;;-0.20;99.90;;;;;;5066583;28;20029;-76
2023/02/26 09:22:16;;;;;;;1.65;1.27;;;-0.20;99.90;;;;;;5050866;28;20037;-76
2023/02/26 09:24:42;;;;;;;0.93;0.73;;;-0.10;99.90;;;;;;5068229;28;20087;-76
2023/02/26 09:27:08;;;;;;;0.90;0.80;;;-0.10;99.90;;;;;;5067858;28;20056;-76
2023/02/26 09:29:34;;;;;;;1.80;1.15;;;0.00;99.90;;;;;;5070385;28;20545;-76
2023/02/26 09:32:00;;;;;;;1.00;0.80;;;0.00;99.90;;;;;;5064683;28;20081;-76
2023/02/26 09:34:26;;;;;;;1.33;0.80;;;0.10;99.90;;;;;;5069880;28;20112;-75
2023/02/26 09:36:52;;;;;;;1.33;0.70;;;0.10;99.90;;;;;;5051807;28;20119;-76
2023/02/26 09:39:18;;;;;;;0.93;0.88;;;0.10;99.90;;;;;;5064342;28;20052;-75
2023/02/26 09:41:48;;;;;;;1.55;0.80;;;0.10;99.90;;;;;;5069846;28;20588;-76
2023/02/26 09:44:17;;;;;;;2.33;0.85;;;0.20;99.90;;;;;;5067588;28;20060;-76
2023/02/26 09:47:01;;;;;;;2.20;0.82;;;0.10;99.90;;;;;;5069644;28;20029;-76
2023/02/26 09:49:54;;;;;;;0.80;0.70;;;0.10;99.90;;;;;;5066589;28;20029;-76
2023/02/26 09:52:33;;;;;;;0.60;0.60;;;0.10;99.90;;;;;;5084705;28;20438;-75
2023/02/26 09:55:25;;;;;;;0.80;0.77;;;0.10;99.90;;;;;;5066305;28;20571;-76
2023/02/26 09:57:56;;;;;;;1.50;0.80;;;0.00;99.90;;;;;;5025262;28;20025;-75
2023/02/26 10:00:33;;;;;;;1.65;0.93;;;0.10;99.90;;;;;;5067732;28;20040;-75
2023/02/26 10:03:14;;;;;;;0.70;0.70;;;0.10;99.90;;;;;;5068838;28;20025;-75
2023/02/26 10:05:44;;;;;;;0.90;0.75;;;0.10;99.90;;;;;;5068187;28;20123;-75
2023/02/26 10:08:18;;;;;;;1.67;0.90;;;0.10;99.90;;;;;;5068678;28;20063;-75
2023/02/26 10:10:49;;;;;;;1.77;1.00;;;0.20;99.90;;;;;;5059108;28;20036;-76
2023/02/26 10:13:33;;;;;;;0.57;0.57;;;0.30;99.90;;;;;;5063720;28;20263;-76
2023/02/26 10:16:12;;;;;;;0.75;0.60;;;0.30;99.90;;;;;;5069595;28;20028;-76
2023/02/26 10:18:51;;;;;;;0.93;0.75;;;0.40;99.90;;;;;;5070266;28;20031;-76
2023/02/26 10:21:35;;;;;;;1.17;0.80;;;0.40;99.90;;;;;;5071391;28;20032;-76
2023/02/26 10:24:08;;;;;;;1.02;0.73;;;0.50;99.90;;;;;;5072755;28;20055;-76
2023/02/26 10:26:44;;;;;;;3.35;0.88;;;0.60;99.90;;;;;;5068156;28;20119;-76
2023/02/26 10:29:28;;;;;;;0.80;0.70;;;0.70;99.90;;;;;;5069850;28;20485;-76
2023/02/26 10:32:18;;;;;;;1.63;0.80;;;0.80;99.90;;;;;;5069792;28;20024;-76
2023/02/26 10:35:02;;;;;;;1.25;0.80;;;0.80;99.90;;;;;;5071804;28;20028;-75
2023/02/26 10:37:39;;;;;;;1.35;0.70;;;0.80;99.90;;;;;;5072245;28;20028;-76
2023/02/26 10:40:20;;;;;;;2.05;0.50;;;0.80;99.90;;;;;;5062603;28;20017;-76
2023/02/26 10:42:58;;;;;;;0.77;0.60;;;0.90;99.90;;;;;;5060357;28;20111;-75
2023/02/26 10:45:42;;;;;;;0.80;0.63;;;0.90;99.90;;;;;;5063007;28;20024;-76
2023/02/26 10:48:31;;;;;;;2.05;0.65;;;0.90;99.90;;;;;;5061266;28;20052;-75
2023/02/26 10:51:00;;;;;;;3.40;0.75;;;0.80;99.90;;;;;;5064223;28;20033;-76
2023/02/26 10:53:29;;;;;;;0.47;0.40;;;0.80;99.90;;;;;;5061813;28;20033;-76
2023/02/26 10:56:03;;;;;;;1.33;0.50;;;0.80;99.90;;;;;;5046539;28;20032;-76
2023/02/26 10:58:28;;;;;;;1.67;0.50;;;0.90;99.90;;;;;;5061466;28;20444;-76
2023/02/26 11:00:55;;;;;;;0.88;0.82;;;1.00;99.90;;;;;;5063336;28;20032;-76
2023/02/26 11:03:42;;;;;;;2.15;0.40;;;1.00;99.90;;;;;;5061845;28;20453;-75
2023/02/26 11:06:20;;;;;;;0.75;0.40;;;1.00;99.90;;;;;;5058749;28;20036;-77
2023/02/26 11:08:51;;;;;;;0.50;0.38;;;0.90;99.90;;;;;;5062451;28;20111;-77
2023/02/26 11:11:39;;;;;;;1.55;0.60;;;1.00;99.90;;;;;;5047897;28;20043;-77
2023/02/26 11:14:07;;;;;;;1.17;0.52;;;0.90;99.90;;;;;;5066131;28;20528;-77
2023/02/26 11:16:34;;;;;;;1.95;0.52;;;1.00;99.90;;;;;;5063911;28;20033;-76
2023/02/26 11:19:00;;;;;;;1.58;0.68;;;0.90;99.90;;;;;;5066085;28;20441;-77
2023/02/26 11:21:33;;;;;;;2.08;0.45;;;0.90;99.90;;;;;;5049773;28;20028;-75
2023/02/26 11:24:07;;;;;;;1.55;0.90;;;0.90;99.90;;;;;;5062337;28;20083;-76
2023/02/26 11:26:35;;;;;;;1.45;0.63;;;0.90;99.90;;;;;;5059645;28;20048;-76
2023/02/26 11:29:01;;;;;;;2.20;0.68;;;0.80;99.90;;;;;;5058664;28;20091;-76
2023/02/26 11:31:28;;;;;;;2.47;1.30;;;0.80;99.90;;;;;;5062061;28;20564;-76
2023/02/26 11:34:07;;;;;;;3.90;0.60;;;0.80;99.90;;;;;;5059592;28;20107;-76
2023/02/26 11:36:37;;;;;;;3.05;0.60;;;0.90;99.90;;;;;;5063482;28;20127;-76
2023/02/26 11:39:12;;;;;;;0.70;0.32;;;1.00;99.90;;;;;;5079116;28;20560;-76
2023/02/26 11:41:39;;;;;;;1.08;0.40;;;1.00;99.90;;;;;;5074874;28;20036;-76
2023/02/26 11:44:07;;;;;;;0.88;0.50;;;1.00;99.90;;;;;;5064548;28;20024;-76
2023/02/26 11:46:43;;;;;;;0.65;0.45;;;1.10;99.90;;;;;;5065237;28;20035;-76
2023/02/26 11:49:13;;;;;;;0.95;0.68;;;1.10;99.90;;;;;;5064372;28;20366;-76
2023/02/26 11:51:44;;;;;;;0.77;0.40;;;1.10;99.90;;;;;;5059883;28;20036;-76
2023/02/26 11:54:27;;;;;;;0.35;0.35;;;1.10;99.90;;;;;;5042573;28;20525;-76
2023/02/26 11:57:01;;;;;;;0.68;0.30;;;1.10;99.90;;;;;;5056781;28;20036;-75
2023/02/26 11:59:30;;;;;;;0.75;0.55;;;1.10;99.90;;;;;;5059712;28;20024;-76
2023/02/26 12:02:02;;;;;;;1.88;0.57;;;1.20;99.90;;;;;;5079129;28;20028;-76
2023/02/26 12:04:30;;;;;;;2.38;0.80;;;1.20;99.90;;;;;;5061090;28;20118;-76
2023/02/26 12:06:56;;;;;;;2.50;0.70;;;1.20;99.90;;;;;;5060092;28;20036;-76
2023/02/26 12:09:24;;;;;;;2.25;1.00;;;1.20;99.90;;;;;;5064297;28;20361;-76
2023/02/26 12:12:09;;;;;;;3.05;1.80;;;1.10;99.90;;;;;;5065506;28;20081;-76
2023/02/26 12:14:52;;;;;;;2.10;1.00;;;1.00;99.90;;;;;;5093121;28;20182;-76
2023/02/26 12:17:33;;;;;;;2.63;1.77;;;1.00;99.90;;;;;;5063091;28;20027;-76
2023/02/26 12:20:42;;;;;;;5.18;2.47;;;0.90;99.90;;;;;;5080276;28;20036;-77
2023/02/26 12:23:26;;;;;;;3.83;0.80;;;0.70;99.90;;;;;;5046876;28;20032;-76
2023/02/26 12:25:57;;;;;;;2.60;1.40;;;0.70;99.90;;;;;;5062502;28;20492;-76
2023/02/26 12:28:25;;;;;;;4.97;2.88;;;0.70;99.90;;;;;;5059424;28;20116;-76
2023/02/26 12:31:01;;;;;;;1.08;0.88;;;0.70;99.90;;;;;;5060811;28;20044;-75
2023/02/26 12:33:42;;;;;;;1.27;0.73;;;0.70;99.90;;;;;;5061921;28;20416;-76
2023/02/26 12:36:48;;;;;;;1.08;0.85;;;0.60;99.90;;;;;;5061152;28;20016;-76
2023/02/26 12:39:43;;;;;;;4.83;2.23;;;0.60;99.90;;;;;;5078435;28;20047;-77
2023/02/26 12:42:24;;;;;;;2.15;0.77;;;0.60;99.90;;;;;;5060920;28;20028;-76
2023/02/26 12:45:08;;;;;;;1.35;0.70;;;0.70;99.90;;;;;;5061859;28;20029;-77
2023/02/26 12:47:58;;;;;;;1.60;1.08;;;0.90;99.90;;;;;;5064895;28;20028;-76
2023/02/26 12:50:49;;;;;;;0.80;0.60;;;1.00;99.90;;;;;;5045470;28;20381;-76
2023/02/26 12:53:23;;;;;;;3.35;1.13;;;1.20;99.90;;;;;;5075418;28;20094;-76
2023/02/26 12:56:00;;;;;;;1.13;0.88;;;1.20;99.90;;;;;;5063213;28;20064;-76
2023/02/26 12:58:52;;;;;;;0.90;0.73;;;1.30;99.90;;;;;;5064129;28;20400;-76
2023/02/26 13:01:18;;;;;;;4.20;1.95;;;1.20;99.90;;;;;;5033180;28;20045;-76
2023/02/26 13:04:05;;;;;;;0.70;0.70;;;1.20;99.90;;;;;;5062188;28;20132;-76
2023/02/26 13:06:43;;;;;;;1.83;0.85;;;1.10;99.90;;;;;;5058021;28;20033;-76
2023/02/26 13:09:30;;;;;;;1.42;1.10;;;1.00;99.90;;;;;;5054836;28;20025;-77
2023/02/26 13:12:23;;;;;;;25.17;12.23;;;0.90;99.90;;;;;;5058990;28;20086;-77
2023/02/26 13:15:13;;;;;;;2.22;0.80;;;0.90;99.90;;;;;;5058271;28;20029;-76